Time;durP1;ratioP1;P1;durP2;ratioP2;P2;SDS_P1;SDS_P2;PMS_P1;PMS_P2;Temp;Humidity;BMP_temperature;BMP_pressure;BME280_temperature;BME280_humidity;BME280_pressure;Samples;Min_cycle;Max_cycle;Signal;HPM_P1;HPM_P2
2023/01/08 00:04:43;;;;;;;;;;;;;;;21.06;39.94;95257.09;10377294;28;2030;-44
2023/01/08 00:09:43;;;;;;;;;;;;;;;21.03;40.05;95245.28;10380753;28;1970;-44
2023/01/08 00:14:44;;;;;;;;;;;;;;;21.03;39.66;95241.88;10376011;28;1969;-44
2023/01/08 00:19:44;;;;;;;;;;;;;;;21.00;39.58;95224.75;10377777;28;2229;-43
2023/01/08 00:24:44;;;;;;;;;;;;;;;20.97;39.20;95221.91;10376513;28;2006;-46
2023/01/08 00:29:44;;;;;;;;;;;;;;;20.97;39.29;95206.88;10379008;28;2048;-46
2023/01/08 00:34:45;;;;;;;;;;;;;;;20.96;39.27;95191.34;10376217;28;2060;-44
2023/01/08 00:39:45;;;;;;;;;;;;;;;20.91;39.49;95202.78;10379117;28;2028;-46
2023/01/08 00:44:45;;;;;;;;;;;;;;;20.91;39.20;95200.13;10381459;28;1998;-46
2023/01/08 00:49:46;;;;;;;;;;;;;;;20.90;39.51;95181.97;10382536;28;2050;-45
2023/01/08 00:54:46;;;;;;;;;;;;;;;20.90;39.34;95174.06;10381573;28;2089;-43
2023/01/08 00:59:46;;;;;;;;;;;;;;;20.86;39.24;95171.22;10383046;28;1991;-45
2023/01/08 01:04:47;;;;;;;;;;;;;;;20.85;39.32;95167.03;10383442;28;2007;-44
2023/01/08 01:09:47;;;;;;;;;;;;;;;20.84;39.50;95162.03;10386455;28;2063;-43
2023/01/08 01:14:47;;;;;;;;;;;;;;;20.84;39.49;95181.28;10383817;28;1965;-43
2023/01/08 01:19:47;;;;;;;;;;;;;;;20.81;39.33;95197.63;10382317;28;2057;-43
2023/01/08 01:24:48;;;;;;;;;;;;;;;20.81;39.46;95202.16;10382437;28;1978;-45
2023/01/08 01:29:48;;;;;;;;;;;;;;;20.77;39.52;95199.28;10381474;28;2022;-47
2023/01/08 01:34:48;;;;;;;;;;;;;;;20.79;39.46;95205.06;10383800;28;2031;-45
2023/01/08 01:39:48;;;;;;;;;;;;;;;20.76;39.31;95189.03;10384332;28;1994;-45
2023/01/08 01:44:49;;;;;;;;;;;;;;;20.73;39.26;95195.66;10369094;28;2038;-45
2023/01/08 01:50:02;;;;;;;;;;;;;;;20.73;39.29;95200.94;10381828;28;2238;-43
2023/01/08 01:55:03;;;;;;;;;;;;;;;20.72;39.39;95196.75;10395081;28;2009;-47
2023/01/08 02:00:04;;;;;;;;;;;;;;;20.70;39.23;95180.44;10382202;28;2081;-44
2023/01/08 02:05:05;;;;;;;;;;;;;;;20.68;39.46;95168.63;10380061;28;2029;-43
2023/01/08 02:10:06;;;;;;;;;;;;;;;20.66;39.22;95147.84;10387511;28;2100;-43
2023/01/08 02:15:10;;;;;;;;;;;;;;;20.64;39.54;95165.81;10396656;28;2043;-43
2023/01/08 02:20:15;;;;;;;;;;;;;;;20.62;39.15;95162.66;10382716;28;2081;-46
2023/01/08 02:25:28;;;;;;;;;;;;;;;20.61;38.99;95134.75;10379553;28;2030;-43
2023/01/08 02:30:28;;;;;;;;;;;;;;;20.59;39.03;95136.91;10378069;28;2148;-44
2023/01/08 02:35:36;;;;;;;;;;;;;;;20.56;39.19;95126.16;10379881;28;2124;-44
2023/01/08 02:40:38;;;;;;;;;;;;;;;20.55;38.89;95125.38;10396605;28;1988;-44
2023/01/08 02:45:41;;;;;;;;;;;;;;;20.53;39.13;95127.53;10379629;28;2128;-44
2023/01/08 02:50:45;;;;;;;;;;;;;;;20.53;38.83;95134.63;10378841;28;2033;-44
2023/01/08 02:55:46;;;;;;;;;;;;;;;20.52;38.76;95131.25;10380234;28;2038;-44
2023/01/08 03:00:46;;;;;;;;;;;;;;;20.49;38.88;95126.53;10378971;28;2028;-43
2023/01/08 03:05:48;;;;;;;;;;;;;;;20.49;39.01;95118.63;10377462;28;2093;-45
2023/01/08 03:10:55;;;;;;;;;;;;;;;20.48;38.73;95111.03;10383927;28;1969;-44
2023/01/08 03:15:56;;;;;;;;;;;;;;;20.45;38.86;95108.97;10398290;28;2009;-43
2023/01/08 03:20:57;;;;;;;;;;;;;;;20.42;38.44;95097.19;10381699;28;1992;-43
2023/01/08 03:25:57;;;;;;;;;;;;;;;20.42;38.47;95091.91;10378616;28;2078;-44
2023/01/08 03:30:57;;;;;;;;;;;;;;;20.40;38.58;95080.91;10380931;28;2024;-45
2023/01/08 03:35:58;;;;;;;;;;;;;;;20.38;38.66;95077.72;10395353;28;2005;-44
2023/01/08 03:40:59;;;;;;;;;;;;;;;20.39;38.62;95078.53;10395118;28;2061;-44
2023/01/08 03:46:05;;;;;;;;;;;;;;;20.36;38.52;95074.63;10378798;28;2286;-45
2023/01/08 03:51:09;;;;;;;;;;;;;;;20.34;38.57;95053.06;10391463;28;2064;-43
2023/01/08 03:56:09;;;;;;;;;;;;;;;20.32;38.37;95047.31;10377014;28;2128;-44
2023/01/08 04:01:09;;;;;;;;;;;;;;;20.33;38.40;95056.78;10376957;28;2062;-45
2023/01/08 04:06:10;;;;;;;;;;;;;;;20.29;38.55;95042.63;10377358;28;2041;-43
2023/01/08 04:11:10;;;;;;;;;;;;;;;20.29;38.30;95037.38;10381882;28;2312;-44
2023/01/08 04:16:10;;;;;;;;;;;;;;;20.26;38.25;95032.66;10374800;28;1978;-43
2023/01/08 04:21:12;;;;;;;;;;;;;;;20.25;38.06;95031.13;10381238;28;2081;-43
2023/01/08 04:26:12;;;;;;;;;;;;;;;20.23;38.33;95041.94;10385256;28;2010;-43
2023/01/08 04:31:12;;;;;;;;;;;;;;;20.23;38.41;95044.56;10383729;28;2266;-44
2023/01/08 04:36:12;;;;;;;;;;;;;;;20.21;38.36;95041.44;10383729;28;2096;-44
2023/01/08 04:41:13;;;;;;;;;;;;;;;20.20;38.37;95021.44;10385112;28;2184;-45
2023/01/08 04:46:13;;;;;;;;;;;;;;;20.19;38.32;95019.09;10384319;28;1973;-47
2023/01/08 04:51:13;;;;;;;;;;;;;;;20.17;38.23;95002.81;10384011;28;1990;-45
2023/01/08 04:56:13;;;;;;;;;;;;;;;20.15;38.60;94994.41;10384029;28;2086;-45
2023/01/08 05:01:24;;;;;;;;;;;;;;;20.13;38.09;94993.94;10383853;28;1953;-44
2023/01/08 05:06:24;;;;;;;;;;;;;;;20.13;38.11;94999.94;10381823;28;2006;-44
2023/01/08 05:11:24;;;;;;;;;;;;;;;20.13;38.38;94999.19;10383060;28;2153;-44
2023/01/08 05:16:24;;;;;;;;;;;;;;;20.09;38.43;95001.59;10386075;28;2036;-44
2023/01/08 05:21:25;;;;;;;;;;;;;;;20.10;38.31;94994.50;10382612;28;2014;-45
2023/01/08 05:26:25;;;;;;;;;;;;;;;20.09;37.93;94992.94;10382272;28;2052;-45
2023/01/08 05:31:25;;;;;;;;;;;;;;;20.13;37.47;94978.13;10381914;28;1981;-45
2023/01/08 05:36:25;;;;;;;;;;;;;;;20.16;37.47;94980.19;10380897;28;2238;-44
2023/01/08 05:41:26;;;;;;;;;;;;;;;20.23;37.26;94980.63;10385130;28;2024;-46
2023/01/08 05:46:26;;;;;;;;;;;;;;;20.24;37.19;94988.22;10383885;28;2014;-45
2023/01/08 05:51:26;;;;;;;;;;;;;;;20.28;36.52;94980.53;10380266;28;2037;-45
2023/01/08 05:56:27;;;;;;;;;;;;;;;20.28;36.54;94981.31;10380912;28;1998;-44
2023/01/08 06:01:27;;;;;;;;;;;;;;;20.28;36.40;94989.22;10380063;28;2013;-46
2023/01/08 06:06:27;;;;;;;;;;;;;;;20.31;36.64;95000.22;10379860;28;2074;-46
2023/01/08 06:11:27;;;;;;;;;;;;;;;20.32;36.33;95002.56;10383402;28;2002;-45
2023/01/08 06:16:28;;;;;;;;;;;;;;;20.33;36.42;95001.50;10381624;28;2087;-45
2023/01/08 06:21:28;;;;;;;;;;;;;;;20.36;36.42;94995.66;10378819;28;2124;-45
2023/01/08 06:26:28;;;;;;;;;;;;;;;20.38;36.26;95008.53;10380200;28;2036;-45
2023/01/08 06:31:28;;;;;;;;;;;;;;;20.39;36.24;94989.81;10380705;28;2004;-46
2023/01/08 06:36:29;;;;;;;;;;;;;;;20.40;36.11;94983.50;10379770;28;2085;-45
2023/01/08 06:41:29;;;;;;;;;;;;;;;20.41;36.22;94990.31;10377798;28;2009;-47
2023/01/08 06:46:29;;;;;;;;;;;;;;;20.44;36.41;94997.63;10395934;28;2023;-44
2023/01/08 06:51:29;;;;;;;;;;;;;;;20.46;36.34;94995.50;10379138;28;2077;-46
2023/01/08 06:56:30;;;;;;;;;;;;;;;20.48;36.15;95017.03;10377812;28;2130;-47
2023/01/08 07:01:30;;;;;;;;;;;;;;;20.49;35.89;95013.31;10377618;28;2003;-44
2023/01/08 07:06:30;;;;;;;;;;;;;;;20.49;36.14;95015.97;10376986;28;2021;-44
2023/01/08 07:11:30;;;;;;;;;;;;;;;20.51;36.18;95010.41;10383906;28;2009;-44
2023/01/08 07:16:31;;;;;;;;;;;;;;;20.52;36.28;95012.75;10379408;28;2070;-46
2023/01/08 07:21:31;;;;;;;;;;;;;;;20.54;36.06;95015.09;10377355;28;2049;-43
2023/01/08 07:26:31;;;;;;;;;;;;;;;20.54;35.96;95023.00;10377328;28;2037;-44
2023/01/08 07:31:32;;;;;;;;;;;;;;;20.56;36.21;95015.59;10377550;28;2075;-45
2023/01/08 07:36:32;;;;;;;;;;;;;;;20.56;36.03;95016.38;10377480;28;2021;-46
2023/01/08 07:41:32;;;;;;;;;;;;;;;20.56;35.86;94994.53;10377022;28;2034;-45
2023/01/08 07:46:32;;;;;;;;;;;;;;;20.61;37.58;94997.84;10378908;28;2048;-45
2023/01/08 07:51:33;;;;;;;;;;;;;;;20.28;35.37;94999.72;10376481;28;2082;-44
2023/01/08 07:56:33;;;;;;;;;;;;;;;19.94;33.88;95003.69;10384300;28;2004;-46
2023/01/08 08:01:33;;;;;;;;;;;;;;;19.66;32.99;94996.78;10384889;28;2046;-42
2023/01/08 08:06:33;;;;;;;;;;;;;;;19.47;32.38;94994.91;10384137;28;2337;-45
2023/01/08 08:11:34;;;;;;;;;;;;;;;19.69;32.19;94990.94;10388423;28;2028;-42
2023/01/08 08:16:34;;;;;;;;;;;;;;;19.88;32.40;94983.81;10382634;28;2228;-44
2023/01/08 08:21:34;;;;;;;;;;;;;;;20.01;32.86;95007.50;10383378;28;2069;-47
2023/01/08 08:26:35;;;;;;;;;;;;;;;20.10;32.97;95007.66;10384340;28;2024;-44
2023/01/08 08:31:35;;;;;;;;;;;;;;;20.17;32.96;95002.81;10384296;28;2010;-47
2023/01/08 08:36:35;;;;;;;;;;;;;;;20.21;33.26;95001.19;10385786;28;2102;-46
2023/01/08 08:41:35;;;;;;;;;;;;;;;20.30;33.78;95003.94;10386914;28;2009;-44
2023/01/08 08:46:36;;;;;;;;;;;;;;;20.31;34.30;94997.59;10385076;28;2105;-45
2023/01/08 08:51:36;;;;;;;;;;;;;;;20.32;33.94;95010.47;10383785;28;1998;-45
2023/01/08 08:56:36;;;;;;;;;;;;;;;20.32;34.48;95005.19;10383655;28;2011;-45
2023/01/08 09:01:36;;;;;;;;;;;;;;;20.36;35.00;95000.16;10382688;28;2045;-45
2023/01/08 09:06:37;;;;;;;;;;;;;;;20.35;35.14;94988.84;10383825;28;2053;-46
2023/01/08 09:11:37;;;;;;;;;;;;;;;20.32;35.40;95002.56;10381658;28;1953;-45
2023/01/08 09:16:37;;;;;;;;;;;;;;;20.30;35.31;95009.22;10383753;28;2095;-44
2023/01/08 09:21:37;;;;;;;;;;;;;;;20.32;35.52;95020.97;10382035;28;2109;-44
2023/01/08 09:26:38;;;;;;;;;;;;;;;20.33;34.92;95017.28;10384512;28;2068;-47
2023/01/08 09:31:38;;;;;;;;;;;;;;;20.44;36.43;95018.69;10386642;28;1993;-44
2023/01/08 09:36:38;;;;;;;;;;;;;;;20.40;35.70;95025.63;10382566;28;1990;-44
2023/01/08 09:41:40;;;;;;;;;;;;;;;20.35;35.83;95025.69;10383503;28;2117;-45
2023/01/08 09:46:40;;;;;;;;;;;;;;;20.33;35.48;95021.78;10399066;28;2000;-42
2023/01/08 09:51:40;;;;;;;;;;;;;;;20.39;36.17;95005.59;10379614;28;2025;-47
2023/01/08 09:56:41;;;;;;;;;;;;;;;20.41;36.05;94992.16;10379088;28;2043;-45
2023/01/08 10:01:43;;;;;;;;;;;;;;;20.32;35.57;94970.97;10379843;28;2070;-47
2023/01/08 10:07:02;;;;;;;;;;;;;;;20.32;36.02;94963.09;10397933;28;2040;-45
2023/01/08 10:12:03;;;;;;;;;;;;;;;20.43;36.51;94969.75;10379129;28;1969;-46
2023/01/08 10:17:07;;;;;;;;;;;;;;;20.46;36.35;94978.91;10379563;28;2056;-44
2023/01/08 10:22:09;;;;;;;;;;;;;;;20.47;36.84;94970.72;10377692;28;2029;-44
2023/01/08 10:27:14;;;;;;;;;;;;;;;20.47;37.59;94980.47;10379979;28;2061;-46
2023/01/08 10:32:14;;;;;;;;;;;;;;;20.45;37.57;94962.31;10379297;28;2062;-47
2023/01/08 10:37:28;;;;;;;;;;;;;;;20.47;37.84;94968.09;10380121;28;2065;-44
2023/01/08 10:42:28;;;;;;;;;;;;;;;20.46;37.82;94966.53;10380702;28;2005;-47
2023/01/08 10:47:30;;;;;;;;;;;;;;;20.46;37.86;94953.38;10365451;28;2086;-46
2023/01/08 10:52:31;;;;;;;;;;;;;;;20.45;37.93;94959.69;10393835;28;2041;-45
2023/01/08 10:57:33;;;;;;;;;;;;;;;20.41;37.83;94956.09;10379095;28;2022;-45
2023/01/08 11:02:36;;;;;;;;;;;;;;;20.39;37.55;94960.84;10377294;28;2033;-46
2023/01/08 11:07:39;;;;;;;;;;;;;;;20.38;37.74;94951.38;10393853;28;2040;-46
2023/01/08 11:12:39;;;;;;;;;;;;;;;20.37;37.85;94960.38;10381726;28;2258;-47
2023/01/08 11:17:39;;;;;;;;;;;;;;;20.37;38.20;94949.84;10378768;28;2039;-46
2023/01/08 11:22:40;;;;;;;;;;;;;;;20.36;38.31;94948.28;10376520;28;2085;-45
2023/01/08 11:27:41;;;;;;;;;;;;;;;20.37;38.16;94939.31;10377709;28;2069;-48
2023/01/08 11:32:51;;;;;;;;;;;;;;;20.33;38.36;94883.06;10375294;28;1993;-46
2023/01/08 11:37:52;;;;;;;;;;;;;;;20.34;39.08;94879.34;10380268;28;2077;-50
2023/01/08 11:42:56;;;;;;;;;;;;;;;20.35;38.89;94877.50;10398016;28;2062;-47
2023/01/08 11:48:06;;;;;;;;;;;;;;;20.32;38.84;94892.03;10376803;28;2018;-45
2023/01/08 11:53:12;;;;;;;;;;;;;;;20.31;38.58;94872.06;10375643;28;2109;-46
2023/01/08 11:58:21;;;;;;;;;;;;;;;20.28;38.55;94856.84;10378374;28;2066;-46
2023/01/08 12:03:29;;;;;;;;;;;;;;;20.25;38.61;94852.16;10375467;28;2034;-46
2023/01/08 12:08:36;;;;;;;;;;;;;;;20.24;38.95;94863.75;10375829;28;2147;-45
2023/01/08 12:13:49;;;;;;;;;;;;;;;20.20;38.45;94865.41;10394046;28;2071;-44
2023/01/08 12:19:06;;;;;;;;;;;;;;;20.23;39.23;94870.09;10376125;28;2245;-48
2023/01/08 12:24:10;;;;;;;;;;;;;;;20.23;39.29;94855.09;10389733;28;1977;-46
2023/01/08 12:29:39;;;;;;;;;;;;;;;20.19;39.16;94863.84;10374038;28;2008;-45
2023/01/08 12:34:40;;;;;;;;;;;;;;;20.18;39.13;94847.25;10375452;28;1971;-46
2023/01/08 12:39:50;;;;;;;;;;;;;;;20.21;39.79;94845.94;10376516;28;2100;-46
2023/01/08 12:44:51;;;;;;;;;;;;;;;20.17;39.81;94835.16;10383810;28;2048;-43
2023/01/08 12:50:14;;;;;;;;;;;;;;;20.15;39.50;94821.53;10381648;28;1989;-46
2023/01/08 12:55:33;;;;;;;;;;;;;;;20.17;40.38;94793.06;10383614;28;2029;-44
2023/01/08 13:00:37;;;;;;;;;;;;;;;20.18;39.89;94788.59;10383088;28;2087;-45
2023/01/08 13:05:37;;;;;;;;;;;;;;;20.18;40.40;94772.78;10402197;28;2065;-46
2023/01/08 13:10:38;;;;;;;;;;;;;;;20.11;40.29;94775.81;10381974;28;2012;-47
2023/01/08 13:15:38;;;;;;;;;;;;;;;20.04;39.67;94761.50;10385769;28;1934;-46
2023/01/08 13:20:38;;;;;;;;;;;;;;;20.01;39.70;94767.38;10397630;28;2067;-45
2023/01/08 13:25:39;;;;;;;;;;;;;;;19.95;40.10;94763.25;10397154;28;2163;-45
2023/01/08 13:30:41;;;;;;;;;;;;;;;19.93;39.59;94760.94;10394082;28;2063;-47
2023/01/08 13:35:41;;;;;;;;;;;;;;;19.92;39.69;94748.06;10381610;28;2021;-44
2023/01/08 13:40:41;;;;;;;;;;;;;;;19.91;39.48;94752.56;10398507;28;2093;-46
2023/01/08 13:45:41;;;;;;;;;;;;;;;19.93;39.96;94744.34;10381871;28;2029;-44
2023/01/08 13:50:42;;;;;;;;;;;;;;;19.96;40.30;94738.53;10376480;28;2029;-46
2023/01/08 13:55:46;;;;;;;;;;;;;;;19.95;40.45;94727.22;10394967;28;2137;-46
2023/01/08 14:00:46;;;;;;;;;;;;;;;19.96;40.12;94730.63;10380681;28;2109;-46
2023/01/08 14:05:47;;;;;;;;;;;;;;;20.08;39.58;94736.16;10379199;28;2123;-46
2023/01/08 14:10:47;;;;;;;;;;;;;;;20.15;39.08;94741.81;10389205;28;2025;-46
2023/01/08 14:15:47;;;;;;;;;;;;;;;20.21;39.20;94743.31;10382928;28;1956;-46
2023/01/08 14:20:48;;;;;;;;;;;;;;;20.27;39.00;94742.91;10378303;28;2051;-46
2023/01/08 14:25:49;;;;;;;;;;;;;;;20.32;39.00;94744.63;10379371;28;1999;-46
2023/01/08 14:30:49;;;;;;;;;;;;;;;20.40;38.79;94746.59;10393051;28;1979;-62
2023/01/08 14:35:50;;;;;;;;;;;;;;;20.41;38.17;94761.31;10380356;28;2129;-62
2023/01/08 14:41:00;;;;;;;;;;;;;;;20.55;39.14;94761.25;10377920;28;2019;-45
2023/01/08 14:46:02;;;;;;;;;;;;;;;20.51;38.26;94755.81;10380173;28;2008;-44
2023/01/08 14:51:19;;;;;;;;;;;;;;;20.60;37.87;94748.00;10378391;28;2017;-45
2023/01/08 14:56:21;;;;;;;;;;;;;;;20.62;36.85;94733.47;10376958;28;2001;-45
2023/01/08 15:01:22;;;;;;;;;;;;;;;20.77;37.27;94738.38;10377653;28;2001;-46
2023/01/08 15:06:26;;;;;;;;;;;;;;;20.84;35.63;94738.75;10378340;28;2068;-45
2023/01/08 15:11:26;;;;;;;;;;;;;;;20.90;35.70;94721.72;10378870;28;1961;-49
2023/01/08 15:16:34;;;;;;;;;;;;;;;20.97;35.56;94703.66;10383066;28;1986;-47
2023/01/08 15:21:34;;;;;;;;;;;;;;;21.05;35.64;94702.19;10392552;28;1985;-45
2023/01/08 15:26:39;;;;;;;;;;;;;;;21.12;35.51;94699.13;10378626;28;2002;-47
2023/01/08 15:31:39;;;;;;;;;;;;;;;21.20;35.54;94690.47;10378205;28;2354;-47
2023/01/08 15:36:40;;;;;;;;;;;;;;;21.30;36.49;94688.38;10377332;28;2061;-49
2023/01/08 15:46:59;;;;;;;;;;;;;;;21.29;34.53;94688.69;10407300;28;1633;-47
2023/01/08 15:51:59;;;;;;;;;;;;;;;21.24;34.19;94673.00;10393030;28;1947;-45
2023/01/08 15:56:59;;;;;;;;;;;;;;;21.25;33.78;94677.16;10411396;28;1626;-45
2023/01/08 16:02:00;;;;;;;;;;;;;;;21.28;33.77;94673.94;10401417;28;1906;-46
2023/01/08 16:07:00;;;;;;;;;;;;;;;21.29;33.13;94665.72;10397952;28;1627;-44
2023/01/08 16:12:01;;;;;;;;;;;;;;;21.35;36.70;94669.00;10390108;28;2192;-46
2023/01/08 16:17:01;;;;;;;;;;;;;;;21.42;36.53;94658.78;10405191;28;2015;-46
2023/01/08 16:22:01;;;;;;;;;;;;;;;21.45;34.45;94652.94;10400653;28;1985;-45
2023/01/08 16:27:01;;;;;;;;;;;;;;;21.46;34.44;94643.91;10402493;28;1567;-46
2023/01/08 16:32:02;;;;;;;;;;;;;;;21.50;34.25;94632.47;10406926;28;1677;-47
2023/01/08 16:37:02;;;;;;;;;;;;;;;21.55;33.98;94611.25;10403883;28;1638;-46
2023/01/08 16:42:03;;;;;;;;;;;;;;;21.63;34.11;94593.88;10406945;28;1972;-48
2023/01/08 16:47:04;;;;;;;;;;;;;;;21.69;33.67;94582.09;10408758;28;1583;-46
2023/01/08 16:52:04;;;;;;;;;;;;;;;21.76;33.27;94569.25;10406202;28;2094;-45
2023/01/08 16:57:04;;;;;;;;;;;;;;;21.81;33.25;94561.16;10402069;28;1640;-44
2023/01/08 17:02:05;;;;;;;;;;;;;;;21.86;33.20;94547.84;10404902;28;1955;-44
2023/01/08 17:07:05;;;;;;;;;;;;;;;21.91;32.59;94545.06;10399626;28;1646;-44
2023/01/08 17:12:05;;;;;;;;;;;;;;;21.94;32.43;94528.63;10400456;28;1785;-45
2023/01/08 17:17:06;;;;;;;;;;;;;;;22.09;32.04;94530.75;10402553;28;1744;-47
2023/01/08 17:22:06;;;;;;;;;;;;;;;22.23;31.67;94528.75;10403782;28;2410;-46
2023/01/08 17:27:06;;;;;;;;;;;;;;;22.34;31.68;94532.59;10407521;28;1623;-45
2023/01/08 17:32:06;;;;;;;;;;;;;;;22.45;33.71;94536.47;10400572;28;1570;-47
2023/01/08 17:37:07;;;;;;;;;;;;;;;22.35;35.87;94533.38;10407813;28;1728;-46
2023/01/08 17:42:26;;;;;;;;;;;;;;;22.26;35.95;94520.19;10403266;28;1918;-45
2023/01/08 17:47:26;;;;;;;;;;;;;;;22.20;36.34;94523.31;10400580;28;1648;-47
2023/01/08 17:52:26;;;;;;;;;;;;;;;22.28;36.44;94511.94;10398494;28;1693;-47
2023/01/08 17:57:30;;;;;;;;;;;;;;;22.22;36.75;94515.84;10395679;28;2044;-45
2023/01/08 18:02:30;;;;;;;;;;;;;;;22.14;36.86;94498.94;10395220;28;1969;-47
2023/01/08 18:07:33;;;;;;;;;;;;;;;22.10;37.00;94484.81;10394632;28;1961;-45
2023/01/08 18:12:33;;;;;;;;;;;;;;;22.07;36.89;94469.59;10399321;28;1666;-54
2023/01/08 18:17:34;;;;;;;;;;;;;;;22.01;37.15;94465.56;10396573;28;1774;-47
2023/01/08 18:22:34;;;;;;;;;;;;;;;21.99;37.16;94444.00;10398605;28;1911;-45
2023/01/08 18:27:34;;;;;;;;;;;;;;;21.96;37.09;94436.72;10403803;28;1885;-47
2023/01/08 18:32:35;;;;;;;;;;;;;;;21.93;37.19;94426.78;10402019;28;1595;-44
2023/01/08 18:37:35;;;;;;;;;;;;;;;21.92;37.07;94425.25;10401277;28;1646;-45
2023/01/08 18:42:35;;;;;;;;;;;;;;;21.92;36.91;94435.03;10399536;28;1915;-47
2023/01/08 18:47:35;;;;;;;;;;;;;;;21.91;36.97;94438.78;10400063;28;1635;-43
2023/01/08 18:52:37;;;;;;;;;;;;;;;21.86;36.81;94422.00;10387421;28;1544;-47
2023/01/08 18:57:38;;;;;;;;;;;;;;;21.90;36.97;94408.19;10393111;28;1667;-44
2023/01/08 19:02:38;;;;;;;;;;;;;;;21.90;36.36;94395.78;10396219;28;1980;-47
2023/01/08 19:07:40;;;;;;;;;;;;;;;21.86;37.08;94385.06;10394427;28;1897;-47
2023/01/08 19:12:40;;;;;;;;;;;;;;;21.82;37.32;94372.81;10379677;28;1599;-45
2023/01/08 19:17:40;;;;;;;;;;;;;;;22.00;36.42;94368.28;10383722;28;2009;-44
2023/01/08 19:22:41;;;;;;;;;;;;;;;21.95;36.24;94357.91;10369772;28;2014;-43
2023/01/08 19:27:41;;;;;;;;;;;;;;;21.95;36.01;94350.75;10391580;28;2033;-45
2023/01/08 19:32:41;;;;;;;;;;;;;;;21.94;36.06;94341.28;10374234;28;2035;-45
2023/01/08 19:37:42;;;;;;;;;;;;;;;21.93;36.12;94331.06;10371591;28;2120;-45
2023/01/08 19:48:01;;;;;;;;;;;;;;;21.92;36.00;94303.91;10371137;28;2032;-45
2023/01/08 19:53:01;;;;;;;;;;;;;;;21.91;35.91;94293.66;10372362;28;2133;-46
2023/01/08 19:58:01;;;;;;;;;;;;;;;21.90;35.91;94294.75;10371124;28;2074;-43
2023/01/08 20:03:02;;;;;;;;;;;;;;;21.88;35.90;94270.53;10334954;28;1098576;-45
2023/01/08 20:08:03;;;;;;;;;;;;;;;21.89;35.84;94259.66;10375628;28;2029;-47
2023/01/08 20:13:03;;;;;;;;;;;;;;;21.85;35.79;94256.13;10377369;28;1984;-45
2023/01/08 20:18:04;;;;;;;;;;;;;;;21.85;35.81;94256.91;10372861;28;2074;-45
2023/01/08 20:23:04;;;;;;;;;;;;;;;21.85;35.77;94254.25;10374130;28;2103;-47
2023/01/08 20:28:04;;;;;;;;;;;;;;;21.81;35.76;94260.44;10372336;28;1989;-44
2023/01/08 20:33:04;;;;;;;;;;;;;;;21.80;36.08;94253.66;10371763;28;2037;-45
2023/01/08 20:38:05;;;;;;;;;;;;;;;21.84;35.53;94254.59;10372157;28;2036;-44
2023/01/08 20:43:05;;;;;;;;;;;;;;;21.79;36.06;94241.53;10375845;28;2014;-44
2023/01/08 20:48:05;;;;;;;;;;;;;;;21.88;35.83;94243.06;10372198;28;2213;-45
2023/01/08 20:53:06;;;;;;;;;;;;;;;21.82;35.75;94251.50;10372689;28;2073;-44
2023/01/08 20:58:06;;;;;;;;;;;;;;;21.81;35.41;94240.16;10372618;28;2017;-44
2023/01/08 21:03:06;;;;;;;;;;;;;;;21.83;35.49;94242.47;10376042;28;1962;-47
2023/01/08 21:08:06;;;;;;;;;;;;;;;21.56;36.44;94245.50;10379115;28;2010;-45
2023/01/08 21:13:07;;;;;;;;;;;;;;;21.36;37.00;94244.31;10379453;28;2017;-44
2023/01/08 21:18:07;;;;;;;;;;;;;;;21.30;37.17;94245.56;10384931;28;2005;-44
2023/01/08 21:23:07;;;;;;;;;;;;;;;21.24;37.18;94230.22;10377826;28;2326;-45
2023/01/08 21:28:07;;;;;;;;;;;;;;;21.17;37.36;94222.03;10378113;28;2105;-44
2023/01/08 21:33:08;;;;;;;;;;;;;;;21.15;37.37;94219.72;10381984;28;1958;-43
2023/01/08 21:38:08;;;;;;;;;;;;;;;21.11;37.79;94210.09;10378378;28;1962;-45
2023/01/08 21:48:28;;;;;;;;;;;;;;;21.12;37.34;94211.66;10373740;28;2131;-46
2023/01/08 21:53:31;;;;;;;;;;;;;;;21.08;37.25;94204.38;10377445;28;1996;-44
2023/01/08 21:58:31;;;;;;;;;;;;;;;21.13;36.65;94198.16;10375537;28;2067;-45
2023/01/08 22:03:32;;;;;;;;;;;;;;;21.11;36.84;94189.03;10375386;28;1949;-42
2023/01/08 22:08:32;;;;;;;;;;;;;;;21.03;36.69;94178.22;10376050;28;2040;-44
2023/01/08 22:13:32;;;;;;;;;;;;;;;21.06;36.79;94177.56;10380762;28;1985;-44
2023/01/08 22:18:33;;;;;;;;;;;;;;;21.03;36.78;94161.63;10376581;28;2053;-43
2023/01/08 22:23:33;;;;;;;;;;;;;;;21.01;36.60;94174.31;10375078;28;2124;-45
2023/01/08 22:28:38;;;;;;;;;;;;;;;20.98;36.72;94138.81;10378753;28;2072;-43
2023/01/08 22:33:38;;;;;;;;;;;;;;;20.97;36.84;94113.59;10375342;28;2006;-45
2023/01/08 22:38:38;;;;;;;;;;;;;;;20.93;36.99;94096.88;10375694;28;2026;-45
2023/01/08 22:43:39;;;;;;;;;;;;;;;20.92;36.78;94090.03;10380219;28;2022;-43
2023/01/08 22:48:39;;;;;;;;;;;;;;;20.91;36.82;94090.34;10374421;28;2174;-44
2023/01/08 22:53:39;;;;;;;;;;;;;;;20.87;36.72;94076.28;10375402;28;2101;-44
2023/01/08 22:58:40;;;;;;;;;;;;;;;20.85;36.79;94070.53;10378246;28;2124;-46
2023/01/08 23:03:43;;;;;;;;;;;;;;;20.79;36.64;94056.00;10379796;28;2096;-44
2023/01/08 23:08:43;;;;;;;;;;;;;;;20.77;36.86;94037.88;10380668;28;2203;-44
2023/01/08 23:13:43;;;;;;;;;;;;;;;20.74;36.70;94037.72;10383908;28;2024;-42
2023/01/08 23:18:44;;;;;;;;;;;;;;;20.70;36.75;94032.34;10380649;28;2024;-43
2023/01/08 23:23:44;;;;;;;;;;;;;;;20.69;36.66;94024.75;10375702;28;1969;-43
2023/01/08 23:28:45;;;;;;;;;;;;;;;20.66;36.82;94020.88;10377531;28;2025;-42
2023/01/08 23:33:45;;;;;;;;;;;;;;;20.66;36.76;94012.22;10379267;28;2120;-43
2023/01/08 23:38:50;;;;;;;;;;;;;;;20.64;36.92;94007.25;10376835;28;2008;-43
2023/01/08 23:43:50;;;;;;;;;;;;;;;20.63;37.06;94015.47;10380416;28;1974;-44
2023/01/08 23:48:50;;;;;;;;;;;;;;;20.61;36.35;94007.88;10378067;28;2041;-44
2023/01/08 23:53:51;;;;;;;;;;;;;;;20.58;36.85;94008.53;10378905;28;2041;-43
2023/01/08 23:58:52;;;;;;;;;;;;;;;20.57;36.80;94017.50;10382214;28;2096;-43
